createdAt,value
2022-11-08T00:01:34.687Z,97204.97
2022-11-08T00:03:37.562Z,97201.56
2022-11-08T00:05:57.900Z,97208.38
2022-11-08T00:08:21.947Z,97204.91
2022-11-08T00:10:42.066Z,97203.50
2022-11-08T00:13:02.522Z,97206.06
2022-11-08T00:15:06.369Z,97202.94
2022-11-08T00:17:10.372Z,97205.59
2022-11-08T00:19:12.939Z,97199.63
2022-11-08T00:21:15.521Z,97203.25
2022-11-08T00:23:18.103Z,97198.06
2022-11-08T00:25:20.754Z,97198.06
2022-11-08T00:27:25.141Z,97191.16
2022-11-08T00:29:27.779Z,97193.78
2022-11-08T00:31:30.367Z,97191.34
2022-11-08T00:33:34.417Z,97182.75
2022-11-08T00:35:37.037Z,97193.13
2022-11-08T00:37:39.601Z,97184.50
2022-11-08T00:39:42.251Z,97181.06
2022-11-08T00:41:44.859Z,97180.22
2022-11-08T00:43:47.579Z,97178.38
2022-11-08T00:45:50.177Z,97180.97
2022-11-08T00:47:52.770Z,97182.69
2022-11-08T00:49:56.680Z,97179.31
2022-11-08T00:51:59.319Z,97183.69
2022-11-08T00:54:02.041Z,97187.25
2022-11-08T00:56:06.416Z,97186.34
2022-11-08T00:58:08.996Z,97181.16
2022-11-08T01:00:15.000Z,97180.38
2022-11-08T01:02:17.639Z,97177.00
2022-11-08T01:04:20.778Z,97182.38
2022-11-08T01:06:26.035Z,97179.03
2022-11-08T01:08:28.635Z,97177.28
2022-11-08T01:10:31.240Z,97174.84
2022-11-08T01:12:33.858Z,97168.94
2022-11-08T01:14:36.507Z,97162.13
2022-11-08T01:16:39.151Z,97158.63
2022-11-08T01:18:42.257Z,97159.44
2022-11-08T01:20:46.390Z,97164.72
2022-11-08T01:22:50.360Z,97163.75
2022-11-08T01:24:52.963Z,97155.19
2022-11-08T01:26:55.549Z,97151.63
2022-11-08T01:28:58.895Z,97148.19
2022-11-08T01:31:04.880Z,97148.25
2022-11-08T01:33:08.456Z,97146.56
2022-11-08T01:35:11.119Z,97144.94
2022-11-08T01:37:13.745Z,97141.41
2022-11-08T01:39:20.599Z,97142.28
2022-11-08T01:41:25.669Z,97138.84
2022-11-08T01:43:46.389Z,97134.56
2022-11-08T01:46:30.614Z,97135.53
2022-11-08T01:48:33.276Z,97129.47
2022-11-08T01:50:35.883Z,97126.06
2022-11-08T01:52:43.526Z,97123.50
2022-11-08T01:54:54.186Z,97118.31
2022-11-08T01:56:59.881Z,97110.63
2022-11-08T01:59:06.019Z,97109.72
2022-11-08T02:01:09.338Z,97107.09
2022-11-08T02:03:15.113Z,97103.81
2022-11-08T02:05:26.478Z,97097.78
2022-11-08T02:07:31.799Z,97096.84
2022-11-08T02:09:37.069Z,97093.34
2022-11-08T02:11:41.599Z,97092.56
2022-11-08T02:13:44.371Z,97096.88
2022-11-08T02:15:47.279Z,97101.22
2022-11-08T02:17:50.076Z,97097.78
2022-11-08T02:19:52.707Z,97093.34
2022-11-08T02:22:00.045Z,97089.25
2022-11-08T02:24:09.109Z,97086.66
2022-11-08T02:26:12.736Z,97080.69
2022-11-08T02:28:16.560Z,97077.19
2022-11-08T02:30:19.584Z,97081.59
2022-11-08T02:32:22.303Z,97081.47
2022-11-08T02:34:28.043Z,97076.47
2022-11-08T02:36:32.065Z,97078.16
2022-11-08T02:38:38.965Z,97062.75
2022-11-08T02:40:49.969Z,97063.66
2022-11-08T02:42:52.529Z,97062.88
2022-11-08T02:44:55.127Z,97045.59
2022-11-08T02:46:58.328Z,97052.53
2022-11-08T02:49:00.923Z,97056.03
2022-11-08T02:51:03.556Z,97053.53
2022-11-08T02:53:06.895Z,97043.13
2022-11-08T02:55:09.541Z,97050.06
2022-11-08T02:57:13.546Z,97047.47
2022-11-08T02:59:16.356Z,97050.06
2022-11-08T03:01:18.985Z,97047.53
2022-11-08T03:03:21.614Z,97041.50
2022-11-08T03:05:25.231Z,97043.22
2022-11-08T03:07:27.769Z,97040.78
2022-11-08T03:09:30.335Z,97043.34
2022-11-08T03:11:33.171Z,97034.69
2022-11-08T03:13:37.078Z,97038.06
2022-11-08T03:15:39.684Z,97043.44
2022-11-08T03:17:42.286Z,97034.91
2022-11-08T03:19:44.887Z,97041.72
2022-11-08T03:21:47.455Z,97036.66
2022-11-08T03:23:50.066Z,97046.28
2022-11-08T03:25:52.639Z,97045.56
2022-11-08T03:27:55.201Z,97047.31
2022-11-08T03:29:59.126Z,97047.41
2022-11-08T03:32:01.716Z,97037.16
2022-11-08T03:34:04.341Z,97042.28
2022-11-08T03:36:07.229Z,97042.31
2022-11-08T03:38:09.848Z,97044.09
2022-11-08T03:40:13.266Z,97041.44
2022-11-08T03:42:15.850Z,97042.31
2022-11-08T03:44:18.450Z,97038.94
2022-11-08T03:46:22.482Z,97039.91
2022-11-08T03:48:25.083Z,97052.81
2022-11-08T03:50:27.772Z,97048.47
2022-11-08T03:52:30.361Z,97052.00
2022-11-08T03:54:32.949Z,97049.59
2022-11-08T03:56:35.560Z,97048.81
2022-11-08T03:58:38.284Z,97035.97
2022-11-08T04:00:40.855Z,97034.91
2022-11-08T04:02:45.439Z,97041.88
2022-11-08T04:04:48.044Z,97048.75
2022-11-08T04:06:50.581Z,97048.66
2022-11-08T04:08:53.211Z,97049.59
2022-11-08T04:10:56.419Z,97047.00
2022-11-08T04:13:17.652Z,97050.53
2022-11-08T04:15:22.497Z,97050.38
2022-11-08T04:17:45.058Z,97051.84
2022-11-08T04:20:06.653Z,97051.69
2022-11-08T04:22:10.945Z,97052.72
2022-11-08T04:24:13.921Z,97046.72
2022-11-08T04:26:16.760Z,97052.56
2022-11-08T04:28:19.593Z,97050.78
2022-11-08T04:30:22.452Z,97040.59
2022-11-08T04:32:25.535Z,97043.22
2022-11-08T04:34:28.114Z,97049.25
2022-11-08T04:36:32.051Z,97050.09
2022-11-08T04:38:35.137Z,97040.63
2022-11-08T04:40:37.792Z,97044.81
2022-11-08T04:42:44.782Z,97044.91
2022-11-08T04:44:47.414Z,97045.81
2022-11-08T04:46:50.039Z,97045.91
2022-11-08T04:48:54.315Z,97045.81
2022-11-08T04:50:56.955Z,97037.25
2022-11-08T04:53:01.276Z,97039.03
2022-11-08T04:55:03.908Z,97034.69
2022-11-08T04:57:06.543Z,97023.47
2022-11-08T04:59:12.385Z,97030.41
2022-11-08T05:01:16.919Z,97018.28
2022-11-08T05:03:19.517Z,97018.25
2022-11-08T05:05:22.910Z,97009.53
2022-11-08T05:07:25.666Z,97006.88
2022-11-08T05:09:29.708Z,97007.66
2022-11-08T05:11:32.450Z,97003.53
2022-11-08T05:13:35.960Z,97000.97
2022-11-08T05:15:38.582Z,96995.91
2022-11-08T05:17:41.205Z,96994.97
2022-11-08T05:20:01.406Z,97000.19
2022-11-08T05:22:21.383Z,96999.25
2022-11-08T05:24:23.989Z,96998.34
2022-11-08T05:26:28.822Z,97002.66
2022-11-08T05:28:31.454Z,97006.97
2022-11-08T05:30:34.033Z,97001.78
2022-11-08T05:32:36.701Z,97005.34
2022-11-08T05:34:39.364Z,97001.75
2022-11-08T05:36:42.085Z,96998.25
2022-11-08T05:38:44.904Z,96993.97
2022-11-08T05:40:47.799Z,96989.75
2022-11-08T05:42:54.117Z,96984.66
2022-11-08T05:44:56.728Z,96985.41
2022-11-08T05:46:59.332Z,96989.72
2022-11-08T05:49:02.023Z,96986.25
2022-11-08T05:51:05.103Z,96996.66
2022-11-08T05:53:07.692Z,96985.47
2022-11-08T05:55:10.723Z,96988.16
2022-11-08T05:57:13.292Z,96988.88
2022-11-08T05:59:17.280Z,96990.69
2022-11-08T06:01:21.382Z,96984.81
2022-11-08T06:03:24.227Z,96983.94
2022-11-08T06:05:37.608Z,96980.38
2022-11-08T06:07:40.245Z,96977.09
2022-11-08T06:09:42.893Z,96986.66
2022-11-08T06:11:45.508Z,96976.25
2022-11-08T06:13:48.620Z,96985.69
2022-11-08T06:15:52.555Z,96982.38
2022-11-08T06:17:55.160Z,96988.47
2022-11-08T06:19:57.786Z,96975.59
2022-11-08T06:22:00.385Z,96978.22
2022-11-08T06:24:02.965Z,96976.59
2022-11-08T06:26:06.266Z,96980.94
2022-11-08T06:28:08.901Z,96991.28
2022-11-08T06:30:12.310Z,96978.34
2022-11-08T06:32:16.311Z,96982.59
2022-11-08T06:34:19.076Z,96976.53
2022-11-08T06:36:21.826Z,96981.66
2022-11-08T06:38:24.485Z,96974.78
2022-11-08T06:40:27.560Z,96987.69
2022-11-08T06:42:30.133Z,96977.31
2022-11-08T06:44:32.708Z,96979.13
2022-11-08T06:46:35.278Z,96986.13
2022-11-08T06:48:39.230Z,96980.94
2022-11-08T06:50:42.858Z,96987.84
2022-11-08T06:52:45.512Z,96987.00
2022-11-08T06:54:48.154Z,96990.41
2022-11-08T06:56:50.718Z,96987.81
2022-11-08T06:58:53.303Z,96987.78
2022-11-08T07:00:55.952Z,96989.53
2022-11-08T07:03:00.168Z,96992.00
2022-11-08T07:05:04.408Z,96988.59
2022-11-08T07:07:07.026Z,96998.91
2022-11-08T07:09:10.028Z,96992.00
2022-11-08T07:11:12.591Z,96999.72
2022-11-08T07:13:15.939Z,97008.13
2022-11-08T07:15:23.427Z,97007.97
2022-11-08T07:17:26.102Z,97010.56
2022-11-08T07:19:28.704Z,97014.75
2022-11-08T07:21:32.853Z,97019.00
2022-11-08T07:23:35.579Z,97013.81
2022-11-08T07:25:38.536Z,97019.78
2022-11-08T07:27:41.117Z,97010.13
2022-11-08T07:29:43.724Z,97014.34
2022-11-08T07:31:47.185Z,97008.19
2022-11-08T07:33:49.784Z,97006.53
2022-11-08T07:35:52.364Z,97010.69
2022-11-08T07:37:56.742Z,97009.81
2022-11-08T07:39:59.402Z,96999.38
2022-11-08T07:42:01.992Z,96990.69
2022-11-08T07:44:05.014Z,96987.22
2022-11-08T07:46:07.835Z,96969.88
2022-11-08T07:48:13.209Z,96967.19
2022-11-08T07:50:18.004Z,96966.22
2022-11-08T07:52:20.755Z,96957.50
2022-11-08T07:54:24.710Z,96952.22
2022-11-08T07:56:27.575Z,96939.22
2022-11-08T07:58:30.153Z,96933.91
2022-11-08T08:00:36.290Z,96929.47
2022-11-08T08:02:39.018Z,96936.28
2022-11-08T08:04:41.996Z,96944.88
2022-11-08T08:06:44.620Z,96945.69
2022-11-08T08:08:47.256Z,96952.41
2022-11-08T08:10:51.402Z,96960.25
2022-11-08T08:12:54.135Z,96980.06
2022-11-08T08:14:56.781Z,96984.19
2022-11-08T08:16:59.359Z,96980.81
2022-11-08T08:19:01.934Z,96993.78
2022-11-08T08:21:04.831Z,96990.38
2022-11-08T08:23:07.809Z,96987.69
2022-11-08T08:25:11.118Z,97001.50
2022-11-08T08:27:15.491Z,97005.31
2022-11-08T08:29:18.098Z,97001.78
2022-11-08T08:31:20.763Z,97011.31
2022-11-08T08:33:30.402Z,97015.69
2022-11-08T08:35:36.436Z,97016.44
2022-11-08T08:37:39.050Z,97016.34
2022-11-08T08:39:41.632Z,97011.97
2022-11-08T08:41:44.276Z,97026.31
2022-11-08T08:43:48.207Z,97024.16
2022-11-08T08:45:51.115Z,97013.69
2022-11-08T08:47:54.690Z,96997.91
2022-11-08T08:49:57.234Z,96993.63
2022-11-08T08:51:59.875Z,96994.56
2022-11-08T08:54:02.528Z,96994.41
2022-11-08T08:56:05.818Z,96994.28
2022-11-08T08:58:08.566Z,96991.47
2022-11-08T09:02:39.887Z,96984.34
2022-11-08T09:04:45.021Z,96986.75
2022-11-08T09:06:47.720Z,96983.09
2022-11-08T09:08:50.374Z,96980.38
2022-11-08T09:10:56.430Z,96979.34
2022-11-08T09:12:59.057Z,96978.38
2022-11-08T09:15:02.062Z,96988.66
2022-11-08T09:17:05.975Z,96990.38
2022-11-08T09:19:08.585Z,96988.41
2022-11-08T09:21:11.189Z,96996.91
2022-11-08T09:23:15.060Z,96999.34
2022-11-08T09:25:17.931Z,97000.94
2022-11-08T09:27:20.558Z,97006.94
2022-11-08T09:29:23.150Z,97000.84
2022-11-08T09:31:25.767Z,96999.78
2022-11-08T09:33:30.154Z,97004.13
2022-11-08T09:35:33.494Z,97010.97
2022-11-08T09:37:36.131Z,97010.88
2022-11-08T09:39:38.780Z,96995.16
2022-11-08T09:42:00.846Z,96994.22
2022-11-08T09:44:10.538Z,97000.25
2022-11-08T09:46:25.734Z,97002.59
2022-11-08T09:48:33.261Z,97002.44
2022-11-08T09:50:40.455Z,97014.28
2022-11-08T09:52:46.690Z,97020.22
2022-11-08T09:54:51.567Z,97008.75
2022-11-08T09:56:55.651Z,97018.00
2022-11-08T09:59:02.200Z,97019.56
2022-11-08T10:01:07.693Z,97015.78
2022-11-08T10:03:15.614Z,97009.44
2022-11-08T10:05:21.311Z,97006.78
2022-11-08T10:07:33.471Z,97002.69
2022-11-08T10:09:51.795Z,97011.31
2022-11-08T10:12:10.376Z,97006.28
2022-11-08T10:14:26.512Z,97004.84
2022-11-08T10:16:37.850Z,97003.75
2022-11-08T10:19:05.925Z,97004.34
2022-11-08T10:21:23.967Z,97005.88
2022-11-08T10:23:41.819Z,97005.88
2022-11-08T10:25:47.686Z,97004.19
2022-11-08T10:27:53.893Z,97003.34
2022-11-08T10:30:02.626Z,96999.78
2022-11-08T10:32:15.404Z,97002.34
2022-11-08T10:34:21.354Z,96999.59
2022-11-08T10:36:29.541Z,96994.19
2022-11-08T10:38:36.987Z,96995.88
2022-11-08T10:40:46.580Z,96998.41
2022-11-08T10:42:57.500Z,96982.59
2022-11-08T10:45:00.376Z,96987.78
2022-11-08T10:47:05.247Z,96985.91
2022-11-08T10:49:20.644Z,96981.44
2022-11-08T10:51:23.259Z,96982.19
2022-11-08T10:53:30.456Z,96984.69
2022-11-08T10:55:38.335Z,96976.88
2022-11-08T10:57:45.199Z,96977.66
2022-11-08T10:59:47.969Z,96975.97
2022-11-08T11:01:51.734Z,96975.78
2022-11-08T11:03:54.919Z,96979.09
2022-11-08T11:06:00.785Z,96974.69
2022-11-08T11:08:17.382Z,96967.59
2022-11-08T11:10:26.999Z,96967.31
2022-11-08T11:12:29.583Z,96968.09
2022-11-08T11:14:32.229Z,96963.63
2022-11-08T11:16:36.599Z,96965.16
2022-11-08T11:18:46.563Z,96963.28
2022-11-08T11:20:59.921Z,96963.16
2022-11-08T11:23:02.652Z,96965.66
2022-11-08T11:25:15.514Z,96956.00
2022-11-08T11:27:24.886Z,96953.34
2022-11-08T11:29:29.824Z,96948.97
2022-11-08T11:31:34.090Z,96945.53
2022-11-08T11:33:45.006Z,96952.56
2022-11-08T11:35:50.878Z,96957.78
2022-11-08T11:37:56.624Z,96950.03
2022-11-08T11:40:05.727Z,96958.72
2022-11-08T11:42:43.988Z,96957.03
2022-11-08T11:44:59.408Z,96948.31
2022-11-08T11:47:06.311Z,96943.03
2022-11-08T11:49:18.703Z,96939.53
2022-11-08T11:51:21.828Z,96939.47
2022-11-08T11:53:27.828Z,96939.41
2022-11-08T11:55:50.806Z,96938.44
2022-11-08T11:58:05.802Z,96937.50
2022-11-08T12:00:12.853Z,96937.31
2022-11-08T12:02:49.963Z,96936.28
2022-11-08T12:05:13.143Z,96939.59
2022-11-08T12:07:22.900Z,96933.19
2022-11-08T12:09:38.595Z,96937.34
2022-11-08T12:11:52.746Z,96931.00
2022-11-08T12:14:13.210Z,96930.03
2022-11-08T12:16:22.846Z,96933.38
2022-11-08T12:18:51.509Z,96917.56
2022-11-08T12:21:04.637Z,96922.59
2022-11-08T12:23:37.303Z,96925.16
2022-11-08T12:25:51.731Z,96925.00
2022-11-08T12:28:01.254Z,96919.63
2022-11-08T12:30:09.982Z,96930.06
2022-11-08T12:32:33.797Z,96923.31
2022-11-08T12:34:49.516Z,96925.97
2022-11-08T12:37:03.279Z,96920.91
2022-11-08T12:39:20.605Z,96918.94
2022-11-08T12:41:37.771Z,96917.81
2022-11-08T12:43:52.842Z,96911.34
2022-11-08T12:46:03.592Z,96918.84
2022-11-08T12:48:16.747Z,96920.03
2022-11-08T12:50:28.612Z,96909.44
2022-11-08T12:52:48.296Z,96908.66
2022-11-08T12:54:54.655Z,96896.69
2022-11-08T12:57:02.379Z,96894.97
2022-11-08T12:59:10.817Z,96899.41
2022-11-08T13:01:15.715Z,96890.00
2022-11-08T13:03:47.098Z,96893.44
2022-11-08T13:05:59.879Z,96888.16
2022-11-08T13:08:09.623Z,96891.59
2022-11-08T13:10:30.209Z,96881.53
2022-11-08T13:12:45.355Z,96879.47
2022-11-08T13:14:48.266Z,96879.13
2022-11-08T13:17:22.888Z,96879.81
2022-11-08T13:19:30.635Z,96877.91
2022-11-08T13:21:39.575Z,96871.59
2022-11-08T13:23:42.220Z,96874.88
2022-11-08T13:25:45.266Z,96870.97
2022-11-08T13:27:48.507Z,96875.03
2022-11-08T13:29:51.840Z,96873.19
2022-11-08T13:31:59.973Z,96873.88
2022-11-08T13:34:21.867Z,96873.03
2022-11-08T13:36:37.183Z,96872.22
2022-11-08T13:38:49.305Z,96870.50
2022-11-08T13:41:15.927Z,96874.66
2022-11-08T13:43:25.142Z,96871.13
2022-11-08T13:45:32.384Z,96873.81
2022-11-08T13:47:54.228Z,96869.72
2022-11-08T13:50:41.118Z,96872.66
2022-11-08T13:52:47.679Z,96867.59
2022-11-08T13:54:52.812Z,96870.31
2022-11-08T13:56:56.479Z,96876.69
2022-11-08T13:58:59.190Z,96869.00
2022-11-08T14:01:04.710Z,96864.78
2022-11-08T14:03:40.613Z,96868.44
2022-11-08T14:05:49.415Z,96865.06
2022-11-08T14:08:17.196Z,96861.69
2022-11-08T14:10:26.383Z,96872.19
2022-11-08T14:12:35.232Z,96866.97
2022-11-08T14:14:43.244Z,96859.13
2022-11-08T14:16:54.682Z,96863.38
2022-11-08T14:19:17.466Z,96863.16
2022-11-08T14:21:21.091Z,96854.09
2022-11-08T14:23:28.681Z,96858.91
2022-11-08T14:25:35.248Z,96854.91
2022-11-08T14:27:41.317Z,96856.16
2022-11-08T14:29:43.963Z,96860.06
2022-11-08T14:31:47.396Z,96856.09
2022-11-08T14:33:50.650Z,96858.22
2022-11-08T14:35:55.983Z,96856.94
2022-11-08T14:37:58.816Z,96857.50
2022-11-08T14:40:02.925Z,96852.13
2022-11-08T14:42:14.107Z,96860.03
2022-11-08T14:44:18.802Z,96859.28
2022-11-08T14:46:29.410Z,96856.03
2022-11-08T14:48:32.184Z,96858.06
2022-11-08T14:50:36.044Z,96857.31
2022-11-08T14:52:38.769Z,96858.41
2022-11-08T14:54:43.713Z,96859.47
2022-11-08T14:56:50.240Z,96857.00
2022-11-08T14:58:54.259Z,96854.56
2022-11-08T15:00:57.496Z,96858.22
2022-11-08T15:03:03.678Z,96852.22
2022-11-08T15:05:33.159Z,96853.00
2022-11-08T15:07:35.837Z,96851.09
2022-11-08T15:09:39.218Z,96849.41
2022-11-08T15:11:43.747Z,96856.41
2022-11-08T15:13:53.182Z,96846.09
2022-11-08T15:16:01.288Z,96847.78
2022-11-08T15:18:12.663Z,96847.69
2022-11-08T15:20:21.741Z,96845.00
2022-11-08T15:22:26.974Z,96838.09
2022-11-08T15:24:36.513Z,96840.72
2022-11-08T15:26:40.483Z,96842.19
2022-11-08T15:28:43.035Z,96842.09
2022-11-08T15:30:51.647Z,96845.09
2022-11-08T15:32:54.348Z,96837.75
2022-11-08T15:34:58.571Z,96839.34
2022-11-08T15:37:01.324Z,96836.13
2022-11-08T15:39:07.049Z,96839.22
2022-11-08T15:41:31.463Z,96841.59
2022-11-08T15:43:41.113Z,96840.50
2022-11-08T15:45:55.017Z,96841.59
2022-11-08T15:48:10.932Z,96850.28
2022-11-08T15:50:16.565Z,96849.66
2022-11-08T15:52:21.484Z,96848.28
2022-11-08T15:54:25.890Z,96850.22
2022-11-08T15:56:28.521Z,96844.25
2022-11-08T15:58:32.563Z,96843.66
2022-11-08T16:00:36.347Z,96837.81
2022-11-08T16:02:40.332Z,96846.72
2022-11-08T16:04:43.018Z,96839.13
2022-11-08T16:06:45.847Z,96846.19
2022-11-08T16:08:48.486Z,96844.56
2022-11-08T16:10:53.739Z,96846.72
2022-11-08T16:12:58.752Z,96852.22
2022-11-08T16:15:01.403Z,96849.69
2022-11-08T16:17:04.299Z,96853.09
2022-11-08T16:19:18.031Z,96859.84
2022-11-08T16:21:20.636Z,96862.38
2022-11-08T16:23:23.224Z,96855.47
2022-11-08T16:25:27.898Z,96852.78
2022-11-08T16:27:30.579Z,96849.69
2022-11-08T16:29:34.887Z,96849.78
2022-11-08T16:31:37.462Z,96853.19
2022-11-08T16:33:40.286Z,96845.50
2022-11-08T16:35:44.288Z,96840.19
2022-11-08T16:37:47.477Z,96843.16
2022-11-08T16:39:50.048Z,96851.66
2022-11-08T16:41:52.767Z,96847.75
2022-11-08T16:43:56.432Z,96842.25
2022-11-08T16:46:05.515Z,96846.09
2022-11-08T16:48:17.348Z,96847.06
2022-11-08T16:50:22.146Z,96839.66
2022-11-08T16:52:26.104Z,96838.97
2022-11-08T16:54:29.248Z,96847.06
2022-11-08T16:56:31.950Z,96842.72
2022-11-08T16:58:34.590Z,96841.06
2022-11-08T17:00:38.333Z,96842.91
2022-11-08T17:02:44.425Z,96846.38
2022-11-08T17:04:47.023Z,96842.03
2022-11-08T17:06:49.684Z,96852.66
2022-11-08T17:08:53.619Z,96842.47
2022-11-08T17:10:56.542Z,96844.41
2022-11-08T17:12:59.182Z,96844.56
2022-11-08T17:15:01.913Z,96853.78
2022-11-08T17:17:04.551Z,96849.69
2022-11-08T17:19:07.197Z,96851.69
2022-11-08T17:21:38.221Z,96851.88
2022-11-08T17:23:33.800Z,96847.16
2022-11-08T17:25:39.814Z,96846.78
2022-11-08T17:27:43.288Z,96847.63
2022-11-08T17:29:45.892Z,96855.16
2022-11-08T17:31:48.822Z,96856.78
2022-11-08T17:33:51.557Z,96850.94
2022-11-08T17:35:54.135Z,96849.31
2022-11-08T17:37:56.700Z,96857.00
2022-11-08T17:39:59.699Z,96854.41
2022-11-08T17:42:03.734Z,96855.47
2022-11-08T17:44:06.514Z,96865.09
2022-11-08T17:46:10.763Z,96862.63
2022-11-08T17:48:13.354Z,96868.53
2022-11-08T17:50:15.966Z,96870.47
2022-11-08T17:52:19.608Z,96870.59
2022-11-08T17:54:22.203Z,96875.97
2022-11-08T17:56:24.858Z,96872.50
2022-11-08T17:58:29.199Z,96866.47
2022-11-08T18:00:34.782Z,96862.22
2022-11-08T18:02:37.474Z,96862.38
2022-11-08T18:04:40.464Z,96859.00
2022-11-08T18:06:43.296Z,96862.47
2022-11-08T18:08:45.971Z,96865.16
2022-11-08T18:10:48.855Z,96860.84
2022-11-08T18:12:51.442Z,96855.69
2022-11-08T18:14:55.412Z,96855.75
2022-11-08T18:16:58.181Z,96858.53
2022-11-08T18:19:00.825Z,96857.75
2022-11-08T18:21:03.389Z,96856.13
2022-11-08T18:23:06.194Z,96858.91
2022-11-08T18:25:09.431Z,96852.91
2022-11-08T18:27:12.065Z,96850.38
2022-11-08T18:29:14.759Z,96859.13
2022-11-08T18:31:20.426Z,96856.59
2022-11-08T18:33:23.101Z,96851.41
2022-11-08T18:35:27.884Z,96849.75
2022-11-08T18:37:30.537Z,96850.69
2022-11-08T18:39:33.103Z,96856.66
2022-11-08T18:41:35.718Z,96850.69
2022-11-08T18:43:38.768Z,96853.28
2022-11-08T18:45:41.373Z,96861.13
2022-11-08T18:47:45.363Z,96865.41
2022-11-08T18:49:47.951Z,96867.88
2022-11-08T18:51:52.655Z,96871.94
2022-11-08T18:53:55.571Z,96873.00
2022-11-08T18:55:58.486Z,96873.78
2022-11-08T18:58:01.099Z,96887.84
2022-11-08T19:00:05.156Z,96888.56
2022-11-08T19:02:07.781Z,96889.94
2022-11-08T19:04:11.733Z,96891.56
2022-11-08T19:06:14.424Z,96897.78
2022-11-08T19:08:18.531Z,96893.53
2022-11-08T19:10:21.298Z,96890.06
2022-11-08T19:12:24.171Z,96893.81
2022-11-08T19:14:27.000Z,96889.53
2022-11-08T19:16:29.879Z,96895.06
2022-11-08T19:18:33.701Z,96902.31
2022-11-08T19:20:37.656Z,96888.50
2022-11-08T19:22:40.251Z,96891.25
2022-11-08T19:24:45.491Z,96892.16
2022-11-08T19:26:48.156Z,96890.25
2022-11-08T19:28:55.261Z,96897.81
2022-11-08T19:30:57.854Z,96888.41
2022-11-08T19:33:00.944Z,96878.28
2022-11-08T19:35:06.542Z,96870.44
2022-11-08T19:37:10.511Z,96872.28
2022-11-08T19:39:13.842Z,96884.69
2022-11-08T19:41:18.432Z,96876.88
2022-11-08T19:43:21.439Z,96872.59
2022-11-08T19:45:24.196Z,96865.56
2022-11-08T19:47:26.799Z,96857.75
2022-11-08T19:49:30.671Z,96850.84
2022-11-08T19:51:34.984Z,96863.13
2022-11-08T19:53:38.940Z,96870.94
2022-11-08T19:55:41.532Z,96883.13
2022-11-08T19:57:44.182Z,96885.81
2022-11-08T19:59:46.787Z,96891.03
2022-11-08T20:01:49.492Z,96887.44
2022-11-08T20:03:52.418Z,96875.94
2022-11-08T20:05:55.324Z,96876.72
2022-11-08T20:07:57.959Z,96874.00
2022-11-08T20:10:02.007Z,96870.38
2022-11-08T20:12:05.735Z,96877.31
2022-11-08T20:14:09.267Z,96880.75
2022-11-08T20:16:13.668Z,96878.13
2022-11-08T20:18:16.760Z,96881.44
2022-11-08T20:20:20.133Z,96883.09
2022-11-08T20:22:22.701Z,96890.06
2022-11-08T20:24:25.376Z,96890.06
2022-11-08T20:26:29.369Z,96892.50
2022-11-08T20:28:32.678Z,96884.56
2022-11-08T20:30:35.379Z,96885.94
2022-11-08T20:32:38.011Z,96896.88
2022-11-08T20:34:41.306Z,96891.94
2022-11-08T20:36:44.846Z,96888.63
2022-11-08T20:38:47.472Z,96896.25
2022-11-08T20:40:50.040Z,96886.72
2022-11-08T20:42:56.313Z,96893.03
2022-11-08T20:44:58.889Z,96890.47
2022-11-08T20:47:06.251Z,96889.56
2022-11-08T20:49:09.789Z,96882.78
2022-11-08T20:51:13.721Z,96871.63
2022-11-08T20:53:16.314Z,96880.41
2022-11-08T20:55:18.923Z,96871.88
2022-11-08T20:57:21.701Z,96873.75
2022-11-08T20:59:25.690Z,96871.31
2022-11-08T21:01:30.570Z,96876.66
2022-11-08T21:03:33.624Z,96882.88
2022-11-08T21:05:36.219Z,96891.66
2022-11-08T21:10:27.552Z,96884.91
2022-11-08T21:12:23.970Z,96891.09
2022-11-08T21:14:28.125Z,96887.72
2022-11-08T21:16:42.421Z,96882.56
2022-11-08T21:18:49.942Z,96883.34
2022-11-08T21:21:02.415Z,96883.50
2022-11-08T21:23:05.113Z,96872.22
2022-11-08T21:25:08.213Z,96875.81
2022-11-08T21:27:11.740Z,96872.34
2022-11-08T21:29:14.462Z,96865.50
2022-11-08T21:31:18.587Z,96864.72
2022-11-08T21:33:21.378Z,96863.03
2022-11-08T21:35:24.205Z,96863.19
2022-11-08T21:37:26.857Z,96864.09
2022-11-08T21:39:29.477Z,96863.25
2022-11-08T21:41:33.801Z,96859.81
2022-11-08T21:43:42.919Z,96852.91
2022-11-08T21:45:46.068Z,96864.22
2022-11-08T21:47:51.762Z,96854.50
2022-11-08T21:49:54.657Z,96859.03
2022-11-08T21:51:57.326Z,96865.28
2022-11-08T21:54:00.416Z,96866.34
2022-11-08T21:56:03.198Z,96863.81
2022-11-08T21:58:05.802Z,96863.03
2022-11-08T22:00:11.236Z,96862.09
2022-11-08T22:02:16.912Z,96864.78
2022-11-08T22:04:20.822Z,96869.16
2022-11-08T22:06:23.954Z,96869.28
2022-11-08T22:08:26.563Z,96873.66
2022-11-08T22:10:29.179Z,96861.53
2022-11-08T22:12:32.128Z,96865.97
2022-11-08T22:14:34.768Z,96864.28
2022-11-08T22:16:37.470Z,96870.47
2022-11-08T22:19:03.743Z,96869.66
2022-11-08T22:21:21.553Z,96872.38
2022-11-08T22:23:24.165Z,96876.75
2022-11-08T22:25:26.758Z,96873.41
2022-11-08T22:27:29.358Z,96870.16
2022-11-08T22:29:32.099Z,96870.97
2022-11-08T22:31:34.759Z,96875.38
2022-11-08T22:33:37.311Z,96883.22
2022-11-08T22:35:39.852Z,96888.44
2022-11-08T22:37:43.737Z,96892.88
2022-11-08T22:39:46.274Z,96898.75
2022-11-08T22:41:50.590Z,96894.72
2022-11-08T22:43:53.689Z,96901.88
2022-11-08T22:45:56.315Z,96896.75
2022-11-08T22:47:58.884Z,96891.47
2022-11-08T22:50:01.588Z,96895.81
2022-11-08T22:52:04.192Z,96895.09
2022-11-08T22:54:08.720Z,96893.28
2022-11-08T22:56:12.151Z,96889.88
2022-11-08T22:58:14.841Z,96884.66
2022-11-08T23:00:18.021Z,96878.75
2022-11-08T23:02:20.590Z,96891.69
2022-11-08T23:04:23.186Z,96885.59
2022-11-08T23:06:25.997Z,96888.19
2022-11-08T23:08:29.136Z,96891.53
2022-11-08T23:10:53.064Z,96890.59
2022-11-08T23:13:13.214Z,96878.50
2022-11-08T23:15:33.414Z,96875.63
2022-11-08T23:17:35.957Z,96875.81
2022-11-08T23:19:55.957Z,96874.09
2022-11-08T23:22:30.577Z,96873.47
2022-11-08T23:24:33.730Z,96872.50
2022-11-08T23:26:55.294Z,96872.50
2022-11-08T23:29:15.531Z,96871.66
2022-11-08T23:31:32.033Z,96868.19
2022-11-08T23:33:34.570Z,96869.97
2022-11-08T23:35:37.159Z,96864.75
2022-11-08T23:37:43.293Z,96871.56
2022-11-08T23:39:59.895Z,96870.00
2022-11-08T23:42:26.590Z,96875.28
2022-11-08T23:44:29.282Z,96874.53
2022-11-08T23:46:31.888Z,96875.34
2022-11-08T23:48:34.639Z,96877.97
2022-11-08T23:50:37.254Z,96880.63
2022-11-08T23:52:39.908Z,96877.16
2022-11-08T23:54:42.533Z,96880.56
2022-11-08T23:56:45.660Z,96883.22
2022-11-08T23:58:49.583Z,96877.97
